createdAt,value
2023-01-02T00:01:40.558Z,11.09
2023-01-02T00:03:42.453Z,11.1
2023-01-02T00:05:43.478Z,11.26
2023-01-02T00:07:44.361Z,11.06
2023-01-02T00:09:46.051Z,10.86
2023-01-02T00:11:47.813Z,10.9
2023-01-02T00:13:48.716Z,11.05
2023-01-02T00:15:50.121Z,11.22
2023-01-02T00:17:51.454Z,11.61
2023-01-02T00:19:52.970Z,11.94
2023-01-02T00:21:54.210Z,12.08
2023-01-02T00:23:55.721Z,12.04
2023-01-02T00:25:56.847Z,12.06
2023-01-02T00:27:57.818Z,12.14
2023-01-02T00:29:58.752Z,12.36
2023-01-02T00:31:59.658Z,12.34
2023-01-02T00:36:02.612Z,12.7
2023-01-02T00:38:04.388Z,12.46
2023-01-02T00:40:06.236Z,12.38
2023-01-02T00:42:07.230Z,12.46
2023-01-02T00:44:08.714Z,12.48
2023-01-02T00:46:12.096Z,12.54
2023-01-02T00:48:11.129Z,12.72
2023-01-02T00:50:12.246Z,12.79
2023-01-02T00:52:14.115Z,12.78
2023-01-02T00:54:15.483Z,12.71
2023-01-02T00:56:17.124Z,12.74
2023-01-02T00:58:18.429Z,12.69
2023-01-02T01:00:23.828Z,12.8
2023-01-02T01:02:21.317Z,12.95
2023-01-02T01:04:22.761Z,12.95
2023-01-02T01:06:23.655Z,12.98
2023-01-02T01:08:25.192Z,12.96
2023-01-02T01:10:26.981Z,12.94
2023-01-02T01:12:28.297Z,12.83
2023-01-02T01:14:30.009Z,12.77
2023-01-02T01:16:31.797Z,12.81
2023-01-02T01:18:33.319Z,12.88
2023-01-02T01:20:34.832Z,12.6
2023-01-02T01:22:36.450Z,12.63
2023-01-02T01:24:37.815Z,12.88
2023-01-02T01:26:39.289Z,12.95
2023-01-02T01:28:40.344Z,13.03
2023-01-02T01:30:42.036Z,13.34
2023-01-02T01:32:43.875Z,13.22
2023-01-02T01:34:45.295Z,13.19
2023-01-02T01:36:46.820Z,13.08
2023-01-02T01:38:48.405Z,13.11
2023-01-02T01:40:50.160Z,12.9
2023-01-02T01:42:53.918Z,12.99
2023-01-02T01:44:52.938Z,12.92
2023-01-02T01:46:54.463Z,13.23
2023-01-02T01:48:55.556Z,13.28
2023-01-02T01:50:57.194Z,13.18
2023-01-02T01:52:58.100Z,12.82
2023-01-02T01:54:59.815Z,12.76
2023-01-02T01:57:00.900Z,12.99
2023-01-02T01:59:02.032Z,12.95
2023-01-02T02:01:03.919Z,12.95
2023-01-02T02:03:05.418Z,13.32
2023-01-02T02:05:06.399Z,13.65
2023-01-02T02:07:07.388Z,13.88
2023-01-02T02:09:08.712Z,13.4
2023-01-02T02:11:09.712Z,13.79
2023-01-02T02:13:11.367Z,13.31
2023-01-02T02:15:12.490Z,13.07
2023-01-02T02:17:13.498Z,13.11
2023-01-02T02:19:15.207Z,13.06
2023-01-02T02:21:16.862Z,13.01
2023-01-02T02:23:18.368Z,12.92
2023-01-02T02:25:20.062Z,13.22
2023-01-02T02:27:21.262Z,12.78
2023-01-02T02:29:22.628Z,12.79
2023-01-02T02:31:23.732Z,13
2023-01-02T02:33:25.536Z,13.06
2023-01-02T02:35:26.598Z,13.29
2023-01-02T02:37:27.483Z,13.32
2023-01-02T02:39:28.877Z,13.32
2023-01-02T02:41:30.593Z,13.46
2023-01-02T02:43:31.832Z,13.4
2023-01-02T02:45:33.553Z,13.46
2023-01-02T02:47:35.119Z,13.44
2023-01-02T02:49:36.073Z,13.36
2023-01-02T02:51:37.681Z,13.35
2023-01-02T02:53:38.911Z,13.29
2023-01-02T02:55:39.805Z,13.26
2023-01-02T02:57:41.683Z,13.07
2023-01-02T02:59:42.691Z,13.19
2023-01-02T03:01:44.246Z,13.11
2023-01-02T03:03:45.749Z,13.35
2023-01-02T03:05:47.359Z,13.35
2023-01-02T03:07:48.455Z,13.34
2023-01-02T03:09:50.298Z,13.32
2023-01-02T03:11:52.072Z,13.11
2023-01-02T03:13:53.566Z,13.25
2023-01-02T03:15:55.306Z,13.33
2023-01-02T03:17:56.880Z,13.29
2023-01-02T03:19:58.242Z,13.31
2023-01-02T03:22:00.007Z,13.27
2023-01-02T03:24:01.445Z,13.32
2023-01-02T03:26:03.216Z,13.33
2023-01-02T03:28:04.256Z,13.18
2023-01-02T03:30:05.344Z,13.2
2023-01-02T03:32:06.526Z,13.01
2023-01-02T03:34:07.466Z,13.09
2023-01-02T03:36:09.199Z,13.12
2023-01-02T03:38:10.334Z,13.25
2023-01-02T03:40:11.731Z,13.27
2023-01-02T03:42:13.174Z,13.3
2023-01-02T03:44:14.512Z,13.41
2023-01-02T03:46:16.153Z,13.1
2023-01-02T03:48:17.671Z,13.08
2023-01-02T03:50:19.491Z,13.22
2023-01-02T03:52:25.728Z,13.32
2023-01-02T03:54:21.630Z,12.88
2023-01-02T03:56:22.858Z,12.99
2023-01-02T03:58:23.928Z,13.36
2023-01-02T04:00:25.693Z,13.54
2023-01-02T04:02:27.547Z,13.7
2023-01-02T04:04:29.039Z,13.52
2023-01-02T04:06:30.590Z,13.58
2023-01-02T04:08:32.134Z,13.56
2023-01-02T04:10:33.930Z,13.69
2023-01-02T04:12:35.271Z,13.5
2023-01-02T04:14:36.321Z,13.47
2023-01-02T04:16:37.390Z,13.52
2023-01-02T04:18:43.036Z,13.52
2023-01-02T04:20:39.994Z,13.59
2023-01-02T04:22:41.065Z,13.63
2023-01-02T04:24:42.400Z,13.77
2023-01-02T04:25:26.209Z,13.75
2023-01-02T04:27:27.148Z,13.64
2023-01-02T04:29:28.767Z,13.78
2023-01-02T04:31:30.487Z,13.76
2023-01-02T04:33:31.961Z,13.57
2023-01-02T04:35:33.807Z,13.57
2023-01-02T04:37:35.491Z,13.55
2023-01-02T04:39:36.411Z,13.48
2023-01-02T04:41:38.120Z,13.52
2023-01-02T04:43:39.802Z,13.5
2023-01-02T04:45:41.038Z,13.46
2023-01-02T04:47:42.710Z,13.59
2023-01-02T04:49:44.179Z,13.58
2023-01-02T04:51:45.482Z,13.74
2023-01-02T04:53:46.516Z,13.79
2023-01-02T04:55:48.185Z,13.77
2023-01-02T04:57:49.373Z,13.75
2023-01-02T04:59:51.042Z,13.85
2023-01-02T05:01:52.359Z,13.91
2023-01-02T05:03:54.090Z,13.91
2023-01-02T05:07:56.966Z,13.9
2023-01-02T05:09:57.996Z,13.81
2023-01-02T05:11:59.526Z,13.69
2023-01-02T05:14:05.506Z,13.59
2023-01-02T05:16:01.821Z,13.56
2023-01-02T05:18:03.174Z,13.54
2023-01-02T05:20:05.037Z,13.74
2023-01-02T05:22:05.969Z,13.57
2023-01-02T05:24:07.088Z,13.44
2023-01-02T05:26:08.489Z,13.44
2023-01-02T05:28:09.387Z,13.4
2023-01-02T05:30:10.310Z,13.4
2023-01-02T05:32:11.676Z,13.38
2023-01-02T05:34:12.785Z,13.42
2023-01-02T05:36:14.069Z,13.49
2023-01-02T05:38:15.183Z,13.33
2023-01-02T05:40:16.472Z,13.31
2023-01-02T05:42:17.405Z,13.2
2023-01-02T05:44:18.828Z,13.11
2023-01-02T05:46:19.940Z,13.03
2023-01-02T05:48:20.769Z,13.16
2023-01-02T05:50:21.811Z,13.28
2023-01-02T05:52:23.060Z,13.3
2023-01-02T05:54:24.570Z,13.31
2023-01-02T05:56:26.009Z,13.26
2023-01-02T05:58:27.895Z,13.06
2023-01-02T06:00:29.255Z,12.94
2023-01-02T06:02:30.783Z,13.04
2023-01-02T06:04:32.239Z,12.98
2023-01-02T06:06:33.662Z,12.86
2023-01-02T06:08:35.381Z,12.88
2023-01-02T06:10:36.393Z,13.21
2023-01-02T06:12:37.870Z,13.35
2023-01-02T06:14:39.688Z,13.26
2023-01-02T06:16:41.240Z,13.17
2023-01-02T06:18:42.641Z,13.32
2023-01-02T06:20:43.604Z,13.28
2023-01-02T06:22:45.307Z,13.11
2023-01-02T06:24:46.439Z,13.02
2023-01-02T06:26:47.859Z,12.91
2023-01-02T06:28:48.892Z,12.81
2023-01-02T06:30:50.095Z,12.7
2023-01-02T06:32:51.791Z,12.59
2023-01-02T06:34:53.178Z,12.75
2023-01-02T06:36:54.966Z,12.68
2023-01-02T06:38:56.473Z,12.68
2023-01-02T06:40:57.516Z,12.56
2023-01-02T06:42:59.941Z,12.61
2023-01-02T06:45:00.195Z,12.62
2023-01-02T06:47:01.859Z,12.7
2023-01-02T06:49:03.057Z,12.51
2023-01-02T06:51:04.629Z,12.51
2023-01-02T06:53:05.984Z,12.4
2023-01-02T06:55:07.699Z,12.32
2023-01-02T06:57:09.093Z,12.11
2023-01-02T06:59:10.112Z,12.05
2023-01-02T07:01:12.043Z,12.23
2023-01-02T07:03:13.557Z,12.15
2023-01-02T07:05:18.495Z,12.05
2023-01-02T07:07:16.158Z,12.2
2023-01-02T07:09:17.579Z,12.13
2023-01-02T07:11:18.823Z,12.1
2023-01-02T07:13:20.569Z,12.1
2023-01-02T07:15:21.515Z,12
2023-01-02T07:17:22.807Z,12.03
2023-01-02T07:19:24.704Z,11.98
2023-01-02T07:21:25.732Z,11.88
2023-01-02T07:23:27.332Z,11.89
2023-01-02T07:25:28.516Z,11.92
2023-01-02T07:27:30.179Z,12.1
2023-01-02T07:31:32.804Z,12.16
2023-01-02T07:33:34.211Z,12.15
2023-01-02T07:35:35.375Z,12.13
2023-01-02T07:37:36.851Z,12.26
2023-01-02T07:39:38.691Z,12.28
2023-01-02T07:41:39.685Z,12.2
2023-01-02T07:43:41.410Z,12.31
2023-01-02T07:45:48.002Z,12.26
2023-01-02T07:47:44.821Z,12.27
2023-01-02T07:49:45.979Z,12.16
2023-01-02T07:51:47.309Z,12.37
2023-01-02T07:53:49.025Z,12.43
2023-01-02T07:55:50.356Z,12.34
2023-01-02T07:57:51.635Z,12.41
2023-01-02T07:59:52.747Z,12.5
2023-01-02T08:01:54.434Z,12.38
2023-01-02T08:03:55.816Z,12.44
2023-01-02T08:05:56.993Z,12.21
2023-01-02T08:07:58.662Z,12.06
2023-01-02T08:10:00.288Z,12.03
2023-01-02T08:12:01.586Z,12.06
2023-01-02T08:14:03.038Z,11.94
2023-01-02T08:16:04.500Z,11.81
2023-01-02T08:18:05.737Z,11.75
2023-01-02T08:20:08.393Z,11.9
2023-01-02T08:22:09.051Z,12
2023-01-02T08:24:10.645Z,12.01
2023-01-02T08:26:11.878Z,11.95
2023-01-02T08:28:13.478Z,11.9
2023-01-02T08:30:14.956Z,11.95
2023-01-02T08:32:16.849Z,12.01
2023-01-02T08:34:18.296Z,11.91
2023-01-02T08:36:19.532Z,11.77
2023-01-02T08:38:21.060Z,11.72
2023-01-02T08:40:22.635Z,11.69
2023-01-02T08:42:24.382Z,11.46
2023-01-02T08:44:25.410Z,11.28
2023-01-02T08:46:26.449Z,11.17
2023-01-02T08:48:28.294Z,11.26
2023-01-02T08:50:29.529Z,11.29
2023-01-02T08:52:31.198Z,11.3
2023-01-02T08:54:32.635Z,11.3
2023-01-02T08:56:34.189Z,11.27
2023-01-02T08:58:35.135Z,11.22
2023-01-02T09:00:36.595Z,11.22
2023-01-02T09:02:38.597Z,11.21
2023-01-02T09:04:40.184Z,11.23
2023-01-02T09:06:41.251Z,11.25
2023-01-02T09:08:43.157Z,11.22
2023-01-02T09:10:44.541Z,11.34
2023-01-02T09:12:45.590Z,11.43
2023-01-02T09:14:46.774Z,11.48
2023-01-02T09:16:48.520Z,11.78
2023-01-02T09:18:49.656Z,12.04
2023-01-02T09:20:51.234Z,12.24
2023-01-02T09:22:52.519Z,12.07
2023-01-02T09:24:54.106Z,11.77
2023-01-02T09:26:55.689Z,12.06
2023-01-02T09:28:57.007Z,12.07
2023-01-02T09:30:58.631Z,12.08
2023-01-02T09:32:59.744Z,11.84
2023-01-02T09:35:01.122Z,11.81
2023-01-02T09:37:02.642Z,11.74
2023-01-02T09:39:03.769Z,11.66
2023-01-02T09:41:05.227Z,11.68
2023-01-02T09:43:06.639Z,11.81
2023-01-02T09:45:08.969Z,11.9
2023-01-02T09:47:08.817Z,12.04
2023-01-02T09:49:09.847Z,12.12
2023-01-02T09:51:11.493Z,12.32
2023-01-02T09:55:14.565Z,12.68
2023-01-02T09:57:16.008Z,12.86
2023-01-02T09:59:17.817Z,13.11
2023-01-02T10:01:19.047Z,13.29
2023-01-02T10:03:20.571Z,13.57
2023-01-02T10:05:23.048Z,13.85
2023-01-02T10:07:24.360Z,14.28
2023-01-02T10:09:26.296Z,14.58
2023-01-02T10:11:28.022Z,14.54
2023-01-02T10:13:51.862Z,14.69
2023-01-02T10:15:31.121Z,14.79
2023-01-02T10:17:32.282Z,14.84
2023-01-02T10:19:33.246Z,14.86
2023-01-02T10:21:34.750Z,14.65
2023-01-02T10:23:35.894Z,14.69
2023-01-02T10:25:37.690Z,14.59
2023-01-02T10:27:39.273Z,14.53
2023-01-02T10:29:41.011Z,14.42
2023-01-02T10:31:42.681Z,14.45
2023-01-02T10:33:44.290Z,14.47
2023-01-02T10:37:47.258Z,14.54
2023-01-02T10:39:48.227Z,14.66
2023-01-02T10:41:49.365Z,14.7
2023-01-02T10:43:50.396Z,14.83
2023-01-02T10:45:51.848Z,14.84
2023-01-02T10:47:52.863Z,14.99
2023-01-02T10:49:54.237Z,15.03
2023-01-02T10:51:55.596Z,15.07
2023-01-02T10:53:57.315Z,15.06
2023-01-02T10:55:58.536Z,15.12
2023-01-02T10:57:59.893Z,15.18
2023-01-02T11:00:01.722Z,15.05
2023-01-02T11:02:02.873Z,14.95
2023-01-02T11:04:03.677Z,14.95
2023-01-02T11:06:23.465Z,14.97
2023-01-02T11:08:06.184Z,15.07
2023-01-02T11:10:07.117Z,15.1
2023-01-02T11:12:52.970Z,15.1
2023-01-02T11:14:54.426Z,15.17
2023-01-02T11:16:55.502Z,15.28
2023-01-02T11:18:57.100Z,15.34
2023-01-02T11:20:59.270Z,15.48
2023-01-02T11:23:00.257Z,15.45
2023-01-02T11:25:01.849Z,15.42
2023-01-02T11:27:02.616Z,15.39
2023-01-02T11:29:03.793Z,15.42
2023-01-02T11:31:04.989Z,15.39
2023-01-02T11:33:05.805Z,15.32
2023-01-02T11:35:07.278Z,15.35
2023-01-02T11:37:08.439Z,15.33
2023-01-02T11:39:10.178Z,15.25
2023-01-02T11:41:11.880Z,15.17
2023-01-02T11:43:14.063Z,15.15
2023-01-02T11:45:15.397Z,15.19
2023-01-02T11:47:17.078Z,15.29
2023-01-02T11:49:18.118Z,15.3
2023-01-02T11:51:19.021Z,15.3
2023-01-02T11:53:20.282Z,15.37
2023-01-02T11:55:21.797Z,15.42
2023-01-02T11:57:23.427Z,15.32
2023-01-02T11:59:24.778Z,15.49
2023-01-02T12:01:26.504Z,15.4
2023-01-02T12:03:27.629Z,15.33
2023-01-02T12:05:29.645Z,15.49
2023-01-02T12:07:31.327Z,15.45
2023-01-02T12:09:32.307Z,15.52
2023-01-02T12:11:33.672Z,15.3
2023-01-02T12:13:35.177Z,15.1
2023-01-02T12:15:36.724Z,15.01
2023-01-02T12:17:37.704Z,14.88
2023-01-02T12:19:38.776Z,14.84
2023-01-02T12:21:40.192Z,14.82
2023-01-02T12:23:41.914Z,14.83
2023-01-02T12:25:43.653Z,14.84
2023-01-02T12:27:44.798Z,14.97
2023-01-02T12:29:48.785Z,15.07
2023-01-02T12:31:48.820Z,14.97
2023-01-02T12:33:49.939Z,15.09
2023-01-02T12:35:51.382Z,15.19
2023-01-02T12:37:52.564Z,15.13
2023-01-02T12:39:54.005Z,15.02
2023-01-02T12:42:00.485Z,14.91
2023-01-02T12:43:56.526Z,14.78
2023-01-02T12:45:58.221Z,14.71
2023-01-02T12:47:59.215Z,14.68
2023-01-02T12:50:00.805Z,14.58
2023-01-02T12:52:02.435Z,14.57
2023-01-02T12:54:19.322Z,14.55
2023-01-02T12:56:04.681Z,14.51
2023-01-02T12:58:06.109Z,14.53
2023-01-02T13:00:07.910Z,14.53
2023-01-02T13:02:10.057Z,14.48
2023-01-02T13:04:11.338Z,14.49
2023-01-02T13:06:43.163Z,14.49
2023-01-02T13:08:13.283Z,14.48
2023-01-02T13:10:15.111Z,14.46
2023-01-02T13:12:16.560Z,14.44
2023-01-02T13:14:17.798Z,14.45
2023-01-02T13:16:25.071Z,14.47
2023-01-02T13:18:20.459Z,14.53
2023-01-02T13:20:21.720Z,14.53
2023-01-02T13:22:22.757Z,14.49
2023-01-02T13:24:24.445Z,14.42
2023-01-02T13:26:25.783Z,14.55
2023-01-02T13:28:27.232Z,14.49
2023-01-02T13:30:28.527Z,14.51
2023-01-02T13:32:29.430Z,14.52
2023-01-02T13:34:30.739Z,14.53
2023-01-02T13:36:31.940Z,14.54
2023-01-02T13:38:33.270Z,14.49
2023-01-02T13:40:34.713Z,14.52
2023-01-02T13:42:36.474Z,14.54
2023-01-02T13:44:38.098Z,14.48
2023-01-02T13:47:02.483Z,14.52
2023-01-02T13:48:40.823Z,14.47
2023-01-02T13:50:41.724Z,14.44
2023-01-02T13:52:42.950Z,14.51
2023-01-02T13:54:44.434Z,14.43
2023-01-02T13:56:45.723Z,14.41
2023-01-02T13:58:46.974Z,14.36
2023-01-02T14:00:54.208Z,14.34
2023-01-02T14:02:49.887Z,14.28
2023-01-02T14:04:51.587Z,14.31
2023-01-02T14:06:54.185Z,14.3
2023-01-02T14:08:54.205Z,14.31
2023-01-02T14:10:56.079Z,14.28
2023-01-02T14:12:57.092Z,14.35
2023-01-02T14:14:58.896Z,14.33
2023-01-02T14:16:59.940Z,14.32
2023-01-02T14:19:01.692Z,14.27
2023-01-02T14:21:03.573Z,14.28
2023-01-02T14:23:05.087Z,14.26
2023-01-02T14:25:06.699Z,14.28
2023-01-02T14:27:08.474Z,14.21
2023-01-02T14:29:09.829Z,14.2
2023-01-02T14:31:10.827Z,14.22
2023-01-02T14:33:11.744Z,14.12
2023-01-02T14:35:13.519Z,14.04
2023-01-02T14:37:15.262Z,14.05
2023-01-02T14:39:16.301Z,13.96
2023-01-02T14:41:17.723Z,13.88
2023-01-02T14:43:18.603Z,13.82
2023-01-02T14:45:19.543Z,13.78
2023-01-02T14:47:20.734Z,13.74
2023-01-02T14:49:24.656Z,13.71
2023-01-02T14:51:23.352Z,13.68
2023-01-02T14:53:24.825Z,13.58
2023-01-02T14:55:25.858Z,13.65
2023-01-02T14:57:27.769Z,13.53
2023-01-02T14:59:29.169Z,13.43
2023-01-02T15:01:41.844Z,13.48
2023-01-02T15:03:32.432Z,13.44
2023-01-02T15:05:33.993Z,13.46
2023-01-02T15:07:35.803Z,13.36
2023-01-02T15:09:37.521Z,13.37
2023-01-02T15:11:38.818Z,13.3
2023-01-02T15:14:03.861Z,13.28
2023-01-02T15:15:41.524Z,13.26
2023-01-02T15:17:42.514Z,13.15
2023-01-02T15:19:44.073Z,13.15
2023-01-02T15:21:45.338Z,13.08
2023-01-02T15:23:46.551Z,12.97
2023-01-02T15:25:48.199Z,12.99
2023-01-02T15:27:49.594Z,12.95
2023-01-02T15:29:50.973Z,12.85
2023-01-02T15:31:52.299Z,12.78
2023-01-02T15:33:53.325Z,12.78
2023-01-02T15:35:54.815Z,12.72
2023-01-02T15:37:56.527Z,12.77
2023-01-02T15:39:58.072Z,12.82
2023-01-02T15:41:59.489Z,12.78
2023-01-02T15:44:00.884Z,12.78
2023-01-02T15:46:02.088Z,12.76
2023-01-02T15:48:03.867Z,12.7
2023-01-02T15:50:05.499Z,12.71
2023-01-02T15:52:07.118Z,12.73
2023-01-02T15:54:08.430Z,12.63
2023-01-02T15:56:09.740Z,12.73
2023-01-02T15:58:10.671Z,12.62
2023-01-02T16:00:12.091Z,12.69
2023-01-02T16:02:19.003Z,12.59
2023-01-02T16:04:15.297Z,12.57
2023-01-02T16:06:17.003Z,12.64
2023-01-02T16:08:18.526Z,12.58
2023-01-02T16:10:19.571Z,12.66
2023-01-02T16:12:21.155Z,12.54
2023-01-02T16:14:22.553Z,12.53
2023-01-02T16:16:23.695Z,12.79
2023-01-02T16:18:24.755Z,12.77
2023-01-02T16:20:26.203Z,12.71
2023-01-02T16:22:27.915Z,12.77
2023-01-02T16:24:29.584Z,12.78
2023-01-02T16:26:31.420Z,12.79
2023-01-02T16:28:34.401Z,12.75
2023-01-02T16:30:37.333Z,12.67
2023-01-02T16:32:36.211Z,12.69
2023-01-02T16:34:38.007Z,12.63
2023-01-02T16:36:39.506Z,12.69
2023-01-02T16:38:41.289Z,12.6
2023-01-02T16:40:59.420Z,12.72
2023-01-02T16:44:44.873Z,12.77
2023-01-02T16:46:45.868Z,12.78
2023-01-02T16:48:47.557Z,12.75
2023-01-02T16:50:48.924Z,12.88
2023-01-02T16:52:50.377Z,13
2023-01-02T16:54:54.202Z,12.94
2023-01-02T16:56:53.661Z,12.95
2023-01-02T16:58:55.164Z,13.03
2023-01-02T17:00:56.345Z,12.9
2023-01-02T17:02:57.662Z,12.88
2023-01-02T17:04:59.045Z,13.03
2023-01-02T17:07:00.150Z,12.99
2023-01-02T17:09:01.670Z,13
2023-01-02T17:11:03.364Z,12.93
2023-01-02T17:13:04.943Z,12.98
2023-01-02T17:15:06.334Z,12.95
2023-01-02T17:17:07.862Z,13.04
2023-01-02T17:19:08.810Z,12.95
2023-01-02T17:21:10.719Z,12.93
2023-01-02T17:23:12.246Z,12.92
2023-01-02T17:25:13.405Z,12.92
2023-01-02T17:27:14.565Z,12.85
2023-01-02T17:29:16.368Z,12.82
2023-01-02T17:31:21.246Z,12.8
2023-01-02T17:33:19.015Z,12.79
2023-01-02T17:35:20.287Z,12.77
2023-01-02T17:37:21.328Z,12.75
2023-01-02T17:39:22.682Z,12.74
2023-01-02T17:41:24.015Z,12.62
2023-01-02T17:43:25.693Z,12.64
2023-01-02T17:45:26.939Z,12.55
2023-01-02T17:49:29.766Z,12.43
2023-01-02T17:51:31.529Z,12.4
2023-01-02T17:53:33.017Z,12.31
2023-01-02T17:55:34.175Z,12.32
2023-01-02T17:58:19.430Z,12.21
2023-01-02T18:00:21.032Z,12.13
2023-01-02T18:02:22.701Z,12.1
2023-01-02T18:04:23.551Z,12.05
2023-01-02T18:06:25.316Z,12.08
2023-01-02T18:08:27.136Z,12.08
2023-01-02T18:10:32.777Z,12.01
2023-01-02T18:12:30.233Z,11.98
2023-01-02T18:14:31.733Z,11.98
2023-01-02T18:16:32.893Z,11.94
2023-01-02T18:18:34.682Z,11.86
2023-01-02T18:20:36.018Z,11.83
2023-01-02T18:22:39.980Z,11.78
2023-01-02T18:24:38.452Z,11.79
2023-01-02T18:26:40.002Z,11.75
2023-01-02T18:28:41.612Z,11.74
2023-01-02T18:30:42.869Z,11.71
2023-01-02T18:32:44.529Z,11.71
2023-01-02T18:34:48.491Z,11.64
2023-01-02T18:36:46.897Z,11.56
2023-01-02T18:38:48.299Z,11.53
2023-01-02T18:40:49.389Z,11.48
2023-01-02T18:42:50.632Z,11.43
2023-01-02T18:44:51.549Z,11.37
2023-01-02T18:47:02.624Z,11.29
2023-01-02T18:48:54.536Z,11.3
2023-01-02T18:50:55.754Z,11.24
2023-01-02T18:52:56.784Z,11.21
2023-01-02T18:54:58.662Z,11.08
2023-01-02T18:56:59.855Z,11.12
2023-01-02T18:59:01.005Z,11.06
2023-01-02T19:01:02.044Z,11.07
2023-01-02T19:03:03.872Z,11.06
2023-01-02T19:05:05.361Z,11.05
2023-01-02T19:07:06.643Z,11.01
2023-01-02T19:09:07.818Z,11.05
2023-01-02T19:11:08.848Z,10.98
2023-01-02T19:13:10.355Z,10.95
2023-01-02T19:15:12.167Z,10.9
2023-01-02T19:17:13.678Z,10.89
2023-01-02T19:19:15.305Z,10.91
2023-01-02T19:21:16.759Z,10.86
2023-01-02T19:23:17.892Z,10.82
2023-01-02T19:25:19.086Z,10.8
2023-01-02T19:27:19.946Z,10.75
2023-01-02T19:29:21.565Z,10.69
2023-01-02T19:31:23.245Z,10.61
2023-01-02T19:35:25.930Z,10.47
2023-01-02T19:37:27.464Z,10.41
2023-01-02T19:39:28.820Z,10.42
2023-01-02T19:41:30.473Z,10.4
2023-01-02T19:43:32.283Z,10.36
2023-01-02T19:45:33.605Z,10.36
2023-01-02T19:47:35.264Z,10.31
2023-01-02T19:49:36.337Z,10.25
2023-01-02T19:51:37.976Z,10.26
2023-01-02T19:53:39.423Z,10.27
2023-01-02T19:55:41.294Z,10.29
2023-01-02T19:57:42.371Z,10.27
2023-01-02T19:59:44.068Z,10.38
2023-01-02T20:01:45.073Z,10.32
2023-01-02T20:03:46.487Z,10.31
2023-01-02T20:05:47.465Z,10.29
2023-01-02T20:07:49.208Z,10.29
2023-01-02T20:09:50.296Z,10.29
2023-01-02T20:11:52.020Z,10.28
2023-01-02T20:13:52.987Z,10.28
2023-01-02T20:15:54.433Z,10.3
2023-01-02T20:17:55.453Z,10.23
2023-01-02T20:19:56.661Z,10.21
2023-01-02T20:21:57.898Z,10.21
2023-01-02T20:23:59.783Z,10.21
2023-01-02T20:26:01.006Z,10.19
2023-01-02T20:28:02.438Z,10.18
2023-01-02T20:30:03.349Z,10.17
2023-01-02T20:32:05.228Z,10.13
2023-01-02T20:34:06.921Z,10.11
2023-01-02T20:36:13.286Z,10.12
2023-01-02T20:38:09.250Z,10.09
2023-01-02T20:40:10.431Z,10.05
2023-01-02T20:42:13.583Z,10.09
2023-01-02T20:44:13.553Z,10.02
2023-01-02T20:46:14.661Z,10.04
2023-01-02T20:48:16.124Z,9.97
2023-01-02T20:50:17.985Z,9.97
2023-01-02T20:52:19.643Z,9.96
2023-01-02T20:54:20.870Z,9.9
2023-01-02T20:56:21.851Z,9.88
2023-01-02T20:58:23.243Z,9.86
2023-01-02T21:00:24.255Z,9.8
2023-01-02T21:02:26.000Z,9.78
2023-01-02T21:04:32.450Z,9.72
2023-01-02T21:06:28.196Z,9.68
2023-01-02T21:08:29.252Z,9.58
2023-01-02T21:10:30.502Z,9.58
2023-01-02T21:12:32.118Z,9.51
2023-01-02T21:14:37.469Z,9.43
2023-01-02T21:16:35.715Z,9.43
2023-01-02T21:18:37.355Z,9.34
2023-01-02T21:20:42.654Z,9.35
2023-01-02T21:22:40.602Z,9.28
2023-01-02T21:24:41.965Z,9.29
2023-01-02T21:26:43.675Z,9.3
2023-01-02T21:28:45.255Z,9.24
2023-01-02T21:30:46.818Z,9.25
2023-01-02T21:32:48.114Z,9.27
2023-01-02T21:34:49.741Z,9.23
2023-01-02T21:36:51.511Z,9.23
2023-01-02T21:38:53.230Z,9.24
2023-01-02T21:40:54.913Z,9.25
2023-01-02T21:42:56.347Z,9.24
2023-01-02T21:44:58.242Z,9.26
2023-01-02T21:46:59.643Z,9.23
2023-01-02T21:49:01.508Z,9.24
2023-01-02T21:51:02.681Z,9.2
2023-01-02T21:53:04.600Z,9.19
2023-01-02T21:55:06.373Z,9.16
2023-01-02T21:57:08.288Z,9.15
2023-01-02T21:59:09.314Z,9.12
2023-01-02T22:01:10.573Z,9.09
2023-01-02T22:03:12.682Z,9.06
2023-01-02T22:05:13.863Z,9.02
2023-01-02T22:07:32.202Z,9.01
2023-01-02T22:09:17.308Z,8.97
2023-01-02T22:11:19.182Z,8.99
2023-01-02T22:13:20.859Z,8.95
2023-01-02T22:15:22.194Z,8.94
2023-01-02T22:17:23.143Z,8.92
2023-01-02T22:19:24.260Z,8.85
2023-01-02T22:21:25.462Z,8.9
2023-01-02T22:23:26.868Z,8.83
2023-01-02T22:25:28.298Z,8.82
2023-01-02T22:27:29.743Z,8.85
2023-01-02T22:29:51.877Z,8.83
2023-01-02T22:31:32.044Z,8.82
2023-01-02T22:33:33.355Z,8.8
2023-01-02T22:35:34.387Z,8.76
2023-01-02T22:37:35.820Z,8.78
2023-01-02T22:41:39.020Z,8.75
2023-01-02T22:43:40.307Z,8.71
2023-01-02T22:45:41.800Z,8.7
2023-01-02T22:47:43.585Z,8.68
2023-01-02T22:49:44.694Z,8.63
2023-01-02T22:53:46.950Z,8.62
2023-01-02T22:55:48.118Z,8.57
2023-01-02T22:57:51.625Z,8.57
2023-01-02T22:59:51.483Z,8.53
2023-01-02T23:01:53.482Z,8.5
2023-01-02T23:03:54.854Z,8.49
2023-01-02T23:05:56.583Z,8.49
2023-01-02T23:07:57.738Z,8.55
2023-01-02T23:09:59.174Z,8.56
2023-01-02T23:12:00.367Z,8.51
2023-01-02T23:14:01.849Z,8.44
2023-01-02T23:16:03.639Z,8.43
2023-01-02T23:18:04.797Z,8.5
2023-01-02T23:20:05.927Z,8.51
2023-01-02T23:22:07.848Z,8.44
2023-01-02T23:24:08.879Z,8.42
2023-01-02T23:26:10.772Z,8.43
2023-01-02T23:28:25.869Z,8.41
2023-01-02T23:30:13.247Z,8.41
2023-01-02T23:32:14.387Z,8.43
2023-01-02T23:34:15.712Z,8.44
2023-01-02T23:36:16.731Z,8.48
2023-01-02T23:38:18.136Z,8.49
2023-01-02T23:40:19.214Z,8.47
2023-01-02T23:42:20.395Z,8.45
2023-01-02T23:44:22.069Z,8.45
2023-01-02T23:46:23.803Z,8.44
2023-01-02T23:48:25.434Z,8.45
2023-01-02T23:50:26.821Z,8.45
2023-01-02T23:52:28.136Z,8.45
2023-01-02T23:54:29.531Z,8.44
2023-01-02T23:56:30.904Z,8.42
2023-01-02T23:58:32.292Z,8.4
